sensor_id;sensor_type;location;lat;lon;timestamp;pressure;altitude;pressure_sealevel;temperature
63689;BMP280;54895;40.928;14.480;2023-05-16T00:01:29;98791.19;;;17.92
63689;BMP280;54895;40.928;14.480;2023-05-16T00:03:56;98746.25;;;17.79
63689;BMP280;54895;40.928;14.480;2023-05-16T00:06:22;98707.22;;;17.78
63689;BMP280;54895;40.928;14.480;2023-05-16T00:08:49;98678.94;;;17.77
63689;BMP280;54895;40.928;14.480;2023-05-16T00:11:16;98820.63;;;18.52
63689;BMP280;54895;40.928;14.480;2023-05-16T00:13:42;98852.81;;;18.32
63689;BMP280;54895;40.928;14.480;2023-05-16T00:16:11;98815.94;;;18.04
63689;BMP280;54895;40.928;14.480;2023-05-16T00:18:39;98802.28;;;18.00
63689;BMP280;54895;40.928;14.480;2023-05-16T00:21:05;98806.63;;;17.91
63689;BMP280;54895;40.928;14.480;2023-05-16T00:23:32;98776.63;;;17.66
63689;BMP280;54895;40.928;14.480;2023-05-16T00:25:58;98701.00;;;17.42
63689;BMP280;54895;40.928;14.480;2023-05-16T00:28:25;98634.19;;;17.52
63689;BMP280;54895;40.928;14.480;2023-05-16T00:30:51;98630.78;;;17.67
63689;BMP280;54895;40.928;14.480;2023-05-16T00:33:17;98613.38;;;17.53
63689;BMP280;54895;40.928;14.480;2023-05-16T00:35:44;98636.59;;;17.77
63689;BMP280;54895;40.928;14.480;2023-05-16T00:38:10;98634.84;;;17.68
63689;BMP280;54895;40.928;14.480;2023-05-16T00:40:37;98635.13;;;17.59
63689;BMP280;54895;40.928;14.480;2023-05-16T00:43:03;98577.69;;;17.35
63689;BMP280;54895;40.928;14.480;2023-05-16T00:45:30;98520.94;;;17.27
63689;BMP280;54895;40.928;14.480;2023-05-16T00:47:56;98545.22;;;17.62
63689;BMP280;54895;40.928;14.480;2023-05-16T00:50:23;98626.53;;;17.78
63689;BMP280;54895;40.928;14.480;2023-05-16T00:52:49;98612.38;;;17.77
63689;BMP280;54895;40.928;14.480;2023-05-16T00:55:16;98685.81;;;18.13
63689;BMP280;54895;40.928;14.480;2023-05-16T01:01:40;98663.59;;;17.97
63689;BMP280;54895;40.928;14.480;2023-05-16T01:04:06;98648.66;;;17.76
63689;BMP280;54895;40.928;14.480;2023-05-16T01:06:34;98583.44;;;17.76
63689;BMP280;54895;40.928;14.480;2023-05-16T01:09:00;98570.47;;;17.55
63689;BMP280;54895;40.928;14.480;2023-05-16T01:11:49;98544.06;;;17.34
63689;BMP280;54895;40.928;14.480;2023-05-16T01:20:07;98435.06;;;17.13
63689;BMP280;54895;40.928;14.480;2023-05-16T01:27:54;98530.72;;;17.20
63689;BMP280;54895;40.928;14.480;2023-05-16T01:30:22;98519.88;;;17.34
63689;BMP280;54895;40.928;14.480;2023-05-16T01:32:48;98547.38;;;17.32
63689;BMP280;54895;40.928;14.480;2023-05-16T01:35:16;98532.59;;;17.33
63689;BMP280;54895;40.928;14.480;2023-05-16T01:37:48;98513.03;;;17.31
63689;BMP280;54895;40.928;14.480;2023-05-16T01:40:26;98500.06;;;17.43
63689;BMP280;54895;40.928;14.480;2023-05-16T01:42:56;98501.88;;;17.54
63689;BMP280;54895;40.928;14.480;2023-05-16T01:45:32;98526.66;;;17.52
63689;BMP280;54895;40.928;14.480;2023-05-16T01:48:04;98525.66;;;17.44
63689;BMP280;54895;40.928;14.480;2023-05-16T01:50:34;98540.22;;;17.39
63689;BMP280;54895;40.928;14.480;2023-05-16T01:53:13;98552.53;;;17.44
63689;BMP280;54895;40.928;14.480;2023-05-16T01:55:47;98603.97;;;17.85
63689;BMP280;54895;40.928;14.480;2023-05-16T02:02:01;98653.00;;;17.68
63689;BMP280;54895;40.928;14.480;2023-05-16T02:04:30;98669.75;;;17.66
63689;BMP280;54895;40.928;14.480;2023-05-16T02:06:57;98655.34;;;17.60
63689;BMP280;54895;40.928;14.480;2023-05-16T02:09:25;98650.81;;;17.80
63689;BMP280;54895;40.928;14.480;2023-05-16T02:11:52;98659.47;;;17.78
63689;BMP280;54895;40.928;14.480;2023-05-16T02:14:19;98697.09;;;18.09
63689;BMP280;54895;40.928;14.480;2023-05-16T02:16:48;98724.88;;;17.98
63689;BMP280;54895;40.928;14.480;2023-05-16T02:19:16;98708.66;;;17.96
63689;BMP280;54895;40.928;14.480;2023-05-16T02:21:43;98695.50;;;17.87
63689;BMP280;54895;40.928;14.480;2023-05-16T02:24:11;98663.44;;;17.75
63689;BMP280;54895;40.928;14.480;2023-05-16T02:26:37;98663.78;;;18.01
63689;BMP280;54895;40.928;14.480;2023-05-16T02:29:04;98662.78;;;17.77
63689;BMP280;54895;40.928;14.480;2023-05-16T02:31:32;98699.38;;;17.99
63689;BMP280;54895;40.928;14.480;2023-05-16T02:34:00;98761.81;;;18.29
63689;BMP280;54895;40.928;14.480;2023-05-16T02:36:27;98778.69;;;18.14
63689;BMP280;54895;40.928;14.480;2023-05-16T02:38:54;98751.97;;;17.87
63689;BMP280;54895;40.928;14.480;2023-05-16T02:41:22;98699.22;;;17.80
63689;BMP280;54895;40.928;14.480;2023-05-16T02:43:49;98735.63;;;18.14
63689;BMP280;54895;40.928;14.480;2023-05-16T02:46:27;98696.38;;;17.45
63689;BMP280;54895;40.928;14.480;2023-05-16T02:48:56;98686.84;;;17.42
63689;BMP280;54895;40.928;14.480;2023-05-16T02:51:24;98775.16;;;17.94
63689;BMP280;54895;40.928;14.480;2023-05-16T02:53:51;98791.50;;;17.38
63689;BMP280;54895;40.928;14.480;2023-05-16T02:56:19;98783.81;;;17.17
63689;BMP280;54895;40.928;14.480;2023-05-16T03:01:56;98780.03;;;17.37
63689;BMP280;54895;40.928;14.480;2023-05-16T03:04:22;98772.75;;;17.40
63689;BMP280;54895;40.928;14.480;2023-05-16T03:06:49;98790.47;;;17.45
63689;BMP280;54895;40.928;14.480;2023-05-16T03:09:17;98762.00;;;17.40
63689;BMP280;54895;40.928;14.480;2023-05-16T03:11:44;98726.78;;;17.18
63689;BMP280;54895;40.928;14.480;2023-05-16T03:14:11;98740.25;;;17.05
63689;BMP280;54895;40.928;14.480;2023-05-16T03:16:37;98751.59;;;17.17
63689;BMP280;54895;40.928;14.480;2023-05-16T03:19:05;98767.13;;;17.05
63689;BMP280;54895;40.928;14.480;2023-05-16T03:21:33;98790.34;;;17.43
63689;BMP280;54895;40.928;14.480;2023-05-16T03:24:00;98791.94;;;17.19
63689;BMP280;54895;40.928;14.480;2023-05-16T03:26:26;98799.75;;;17.13
63689;BMP280;54895;40.928;14.480;2023-05-16T03:28:53;98811.22;;;17.00
63689;BMP280;54895;40.928;14.480;2023-05-16T03:31:20;98797.22;;;16.88
63689;BMP280;54895;40.928;14.480;2023-05-16T03:33:46;98814.19;;;17.06
63689;BMP280;54895;40.928;14.480;2023-05-16T03:36:13;98801.84;;;17.30
63689;BMP280;54895;40.928;14.480;2023-05-16T03:38:39;98817.22;;;17.43
63689;BMP280;54895;40.928;14.480;2023-05-16T03:41:06;98804.06;;;17.20
63689;BMP280;54895;40.928;14.480;2023-05-16T03:43:32;98811.63;;;17.37
63689;BMP280;54895;40.928;14.480;2023-05-16T03:46:00;98812.81;;;17.34
63689;BMP280;54895;40.928;14.480;2023-05-16T03:48:26;98804.75;;;17.34
63689;BMP280;54895;40.928;14.480;2023-05-16T03:50:53;98809.56;;;17.22
63689;BMP280;54895;40.928;14.480;2023-05-16T03:53:19;98809.91;;;17.30
63689;BMP280;54895;40.928;14.480;2023-05-16T03:55:45;98817.47;;;17.33
63689;BMP280;54895;40.928;14.480;2023-05-16T04:02:12;98817.72;;;17.24
63689;BMP280;54895;40.928;14.480;2023-05-16T04:04:40;98813.44;;;17.19
63689;BMP280;54895;40.928;14.480;2023-05-16T04:07:07;98814.03;;;17.31
63689;BMP280;54895;40.928;14.480;2023-05-16T04:09:33;98796.97;;;17.11
63689;BMP280;54895;40.928;14.480;2023-05-16T04:12:00;98787.97;;;17.20
63689;BMP280;54895;40.928;14.480;2023-05-16T04:14:28;98780.88;;;17.26
63689;BMP280;54895;40.928;14.480;2023-05-16T04:16:54;98799.44;;;17.36
63689;BMP280;54895;40.928;14.480;2023-05-16T04:19:21;98808.59;;;17.60
63689;BMP280;54895;40.928;14.480;2023-05-16T04:21:48;98805.38;;;17.48
63689;BMP280;54895;40.928;14.480;2023-05-16T04:24:14;98805.38;;;17.48
63689;BMP280;54895;40.928;14.480;2023-05-16T04:26:41;98775.09;;;17.32
63689;BMP280;54895;40.928;14.480;2023-05-16T04:29:07;98770.00;;;17.38
63689;BMP280;54895;40.928;14.480;2023-05-16T04:31:34;98784.97;;;17.43
63689;BMP280;54895;40.928;14.480;2023-05-16T04:34:02;98778.06;;;17.38
63689;BMP280;54895;40.928;14.480;2023-05-16T04:36:28;98760.44;;;17.35
63689;BMP280;54895;40.928;14.480;2023-05-16T04:38:56;98757.78;;;17.50
63689;BMP280;54895;40.928;14.480;2023-05-16T04:41:23;98766.88;;;17.59
63689;BMP280;54895;40.928;14.480;2023-05-16T04:43:50;98756.44;;;17.36
63689;BMP280;54895;40.928;14.480;2023-05-16T04:46:17;98737.16;;;17.55
63689;BMP280;54895;40.928;14.480;2023-05-16T04:48:43;98729.25;;;17.59
63689;BMP280;54895;40.928;14.480;2023-05-16T04:51:10;98764.41;;;17.94
63689;BMP280;54895;40.928;14.480;2023-05-16T04:53:37;98867.00;;;18.50
63689;BMP280;54895;40.928;14.480;2023-05-16T04:56:04;98878.50;;;18.51
63689;BMP280;54895;40.928;14.480;2023-05-16T05:01:50;98857.84;;;18.40
63689;BMP280;54895;40.928;14.480;2023-05-16T05:04:16;98794.63;;;18.10
63689;BMP280;54895;40.928;14.480;2023-05-16T05:06:43;98782.06;;;18.14
63689;BMP280;54895;40.928;14.480;2023-05-16T05:09:09;98747.63;;;18.11
63689;BMP280;54895;40.928;14.480;2023-05-16T05:11:36;98780.50;;;18.58
63689;BMP280;54895;40.928;14.480;2023-05-16T05:14:02;98783.84;;;18.41
63689;BMP280;54895;40.928;14.480;2023-05-16T05:16:31;98837.03;;;18.90
63689;BMP280;54895;40.928;14.480;2023-05-16T05:18:59;98878.00;;;19.04
63689;BMP280;54895;40.928;14.480;2023-05-16T05:21:26;98847.84;;;18.75
63689;BMP280;54895;40.928;14.480;2023-05-16T05:23:55;98828.31;;;18.75
63689;BMP280;54895;40.928;14.480;2023-05-16T05:26:22;98807.44;;;18.58
63689;BMP280;54895;40.928;14.480;2023-05-16T05:28:50;98878.59;;;18.85
63689;BMP280;54895;40.928;14.480;2023-05-16T05:31:17;98905.88;;;19.11
63689;BMP280;54895;40.928;14.480;2023-05-16T05:33:43;98896.03;;;19.17
63689;BMP280;54895;40.928;14.480;2023-05-16T05:36:09;98893.13;;;19.11
63689;BMP280;54895;40.928;14.480;2023-05-16T05:38:36;98869.31;;;19.06
63689;BMP280;54895;40.928;14.480;2023-05-16T05:41:03;98883.13;;;19.31
63689;BMP280;54895;40.928;14.480;2023-05-16T05:43:30;98919.00;;;19.36
63689;BMP280;54895;40.928;14.480;2023-05-16T05:45:56;98877.56;;;19.27
63689;BMP280;54895;40.928;14.480;2023-05-16T05:48:22;98908.06;;;19.14
63689;BMP280;54895;40.928;14.480;2023-05-16T05:50:49;98841.56;;;19.03
63689;BMP280;54895;40.928;14.480;2023-05-16T05:53:15;98854.69;;;19.11
63689;BMP280;54895;40.928;14.480;2023-05-16T05:55:41;98856.59;;;19.08
63689;BMP280;54895;40.928;14.480;2023-05-16T06:02:09;98855.81;;;19.23
63689;BMP280;54895;40.928;14.480;2023-05-16T06:04:35;98852.19;;;18.99
63689;BMP280;54895;40.928;14.480;2023-05-16T06:07:02;98855.00;;;19.19
63689;BMP280;54895;40.928;14.480;2023-05-16T06:09:28;98840.81;;;19.18
63689;BMP280;54895;40.928;14.480;2023-05-16T06:11:54;98823.63;;;18.92
63689;BMP280;54895;40.928;14.480;2023-05-16T06:14:21;98823.34;;;19.19
63689;BMP280;54895;40.928;14.480;2023-05-16T06:16:47;98843.91;;;19.46
63689;BMP280;54895;40.928;14.480;2023-05-16T06:19:13;98870.94;;;19.85
63689;BMP280;54895;40.928;14.480;2023-05-16T06:21:41;98891.19;;;19.66
63689;BMP280;54895;40.928;14.480;2023-05-16T06:24:09;98893.19;;;19.66
63689;BMP280;54895;40.928;14.480;2023-05-16T06:26:35;98880.31;;;19.64
63689;BMP280;54895;40.928;14.480;2023-05-16T06:29:02;98880.63;;;19.72
63689;BMP280;54895;40.928;14.480;2023-05-16T06:31:28;98893.72;;;19.80
63689;BMP280;54895;40.928;14.480;2023-05-16T06:33:54;98881.25;;;19.90
63689;BMP280;54895;40.928;14.480;2023-05-16T06:36:21;98890.56;;;20.24
63689;BMP280;54895;40.928;14.480;2023-05-16T06:38:48;98889.59;;;20.35
63689;BMP280;54895;40.928;14.480;2023-05-16T06:41:14;98910.78;;;20.62
63689;BMP280;54895;40.928;14.480;2023-05-16T06:43:41;98929.44;;;20.54
63689;BMP280;54895;40.928;14.480;2023-05-16T06:46:07;98930.91;;;20.78
63689;BMP280;54895;40.928;14.480;2023-05-16T06:48:33;98937.44;;;20.71
63689;BMP280;54895;40.928;14.480;2023-05-16T06:50:59;98941.03;;;20.78
63689;BMP280;54895;40.928;14.480;2023-05-16T06:53:25;98925.41;;;20.55
63689;BMP280;54895;40.928;14.480;2023-05-16T06:55:53;98916.81;;;20.41
63689;BMP280;54895;40.928;14.480;2023-05-16T07:02:05;98855.81;;;19.95
63689;BMP280;54895;40.928;14.480;2023-05-16T07:04:32;98842.22;;;20.32
63689;BMP280;54895;40.928;14.480;2023-05-16T07:07:03;98894.50;;;20.41
63689;BMP280;54895;40.928;14.480;2023-05-16T07:09:30;98890.91;;;20.54
63689;BMP280;54895;40.928;14.480;2023-05-16T07:11:58;98918.34;;;20.46
63689;BMP280;54895;40.928;14.480;2023-05-16T07:14:28;98881.75;;;20.43
63689;BMP280;54895;40.928;14.480;2023-05-16T07:16:56;98929.00;;;20.62
63689;BMP280;54895;40.928;14.480;2023-05-16T07:19:23;98925.09;;;20.08
63689;BMP280;54895;40.928;14.480;2023-05-16T07:21:50;98922.19;;;20.02
63689;BMP280;54895;40.928;14.480;2023-05-16T07:24:17;98882.66;;;20.11
63689;BMP280;54895;40.928;14.480;2023-05-16T07:26:45;98901.88;;;20.38
63689;BMP280;54895;40.928;14.480;2023-05-16T07:29:12;98938.00;;;20.68
63689;BMP280;54895;40.928;14.480;2023-05-16T07:31:40;98948.09;;;20.87
63689;BMP280;54895;40.928;14.480;2023-05-16T07:34:09;98986.44;;;21.22
63689;BMP280;54895;40.928;14.480;2023-05-16T07:36:38;99003.09;;;21.58
63689;BMP280;54895;40.928;14.480;2023-05-16T07:39:05;99012.28;;;21.49
63689;BMP280;54895;40.928;14.480;2023-05-16T07:41:33;99023.97;;;21.34
63689;BMP280;54895;40.928;14.480;2023-05-16T07:44:01;99021.19;;;21.32
63689;BMP280;54895;40.928;14.480;2023-05-16T07:46:28;99016.31;;;21.48
63689;BMP280;54895;40.928;14.480;2023-05-16T07:48:56;99018.41;;;21.49
63689;BMP280;54895;40.928;14.480;2023-05-16T07:51:23;99049.28;;;21.64
63689;BMP280;54895;40.928;14.480;2023-05-16T07:53:50;99055.31;;;21.84
63689;BMP280;54895;40.928;14.480;2023-05-16T07:56:18;99059.78;;;21.75
63689;BMP280;54895;40.928;14.480;2023-05-16T08:02:40;99068.03;;;21.79
63689;BMP280;54895;40.928;14.480;2023-05-16T08:05:07;99076.16;;;21.79
63689;BMP280;54895;40.928;14.480;2023-05-16T08:07:34;99074.81;;;22.02
63689;BMP280;54895;40.928;14.480;2023-05-16T08:10:01;99068.47;;;21.72
63689;BMP280;54895;40.928;14.480;2023-05-16T08:12:28;99062.34;;;21.69
63689;BMP280;54895;40.928;14.480;2023-05-16T08:14:56;99049.28;;;20.82
63689;BMP280;54895;40.928;14.480;2023-05-16T08:17:22;99014.41;;;20.90
63689;BMP280;54895;40.928;14.480;2023-05-16T08:19:52;99013.38;;;20.99
63689;BMP280;54895;40.928;14.480;2023-05-16T08:22:19;98979.06;;;20.84
63689;BMP280;54895;40.928;14.480;2023-05-16T08:24:46;98983.53;;;21.38
63689;BMP280;54895;40.928;14.480;2023-05-16T08:27:12;99024.84;;;21.83
63689;BMP280;54895;40.928;14.480;2023-05-16T08:29:38;99022.69;;;21.80
63689;BMP280;54895;40.928;14.480;2023-05-16T08:32:05;99018.84;;;21.42
63689;BMP280;54895;40.928;14.480;2023-05-16T08:34:32;99055.75;;;22.44
63689;BMP280;54895;40.928;14.480;2023-05-16T08:36:58;99095.56;;;22.63
63689;BMP280;54895;40.928;14.480;2023-05-16T08:39:25;99109.38;;;22.73
63689;BMP280;54895;40.928;14.480;2023-05-16T08:41:52;99127.97;;;22.83
63689;BMP280;54895;40.928;14.480;2023-05-16T08:44:18;99126.94;;;22.70
63689;BMP280;54895;40.928;14.480;2023-05-16T08:46:51;99104.66;;;22.04
63689;BMP280;54895;40.928;14.480;2023-05-16T08:49:21;99113.50;;;22.51
63689;BMP280;54895;40.928;14.480;2023-05-16T08:51:50;99141.06;;;23.16
63689;BMP280;54895;40.928;14.480;2023-05-16T08:54:16;99157.75;;;23.06
63689;BMP280;54895;40.928;14.480;2023-05-16T08:56:44;99135.91;;;23.00
63689;BMP280;54895;40.928;14.480;2023-05-16T09:02:59;99183.22;;;22.95
63689;BMP280;54895;40.928;14.480;2023-05-16T09:05:28;99183.03;;;22.42
63689;BMP280;54895;40.928;14.480;2023-05-16T09:07:55;99185.88;;;22.46
63689;BMP280;54895;40.928;14.480;2023-05-16T09:10:22;99188.47;;;22.21
63689;BMP280;54895;40.928;14.480;2023-05-16T09:12:48;99198.97;;;21.90
63689;BMP280;54895;40.928;14.480;2023-05-16T09:15:18;99176.09;;;22.59
63689;BMP280;54895;40.928;14.480;2023-05-16T09:17:46;99222.81;;;22.57
63689;BMP280;54895;40.928;14.480;2023-05-16T09:20:16;99204.94;;;22.06
63689;BMP280;54895;40.928;14.480;2023-05-16T09:22:53;99179.63;;;21.37
63689;BMP280;54895;40.928;14.480;2023-05-16T09:25:22;99167.38;;;21.75
63689;BMP280;54895;40.928;14.480;2023-05-16T09:27:55;99150.72;;;21.63
63689;BMP280;54895;40.928;14.480;2023-05-16T09:30:27;99156.72;;;21.40
63689;BMP280;54895;40.928;14.480;2023-05-16T09:32:54;99124.13;;;20.97
63689;BMP280;54895;40.928;14.480;2023-05-16T09:35:23;99057.13;;;20.74
63689;BMP280;54895;40.928;14.480;2023-05-16T09:37:50;99060.09;;;20.82
63689;BMP280;54895;40.928;14.480;2023-05-16T09:40:21;99097.53;;;21.09
63689;BMP280;54895;40.928;14.480;2023-05-16T09:43:06;99100.50;;;21.17
63689;BMP280;54895;40.928;14.480;2023-05-16T09:45:34;99107.50;;;20.85
63689;BMP280;54895;40.928;14.480;2023-05-16T09:48:04;99105.56;;;21.07
63689;BMP280;54895;40.928;14.480;2023-05-16T09:50:35;99119.00;;;21.24
63689;BMP280;54895;40.928;14.480;2023-05-16T09:53:02;99151.84;;;21.56
63689;BMP280;54895;40.928;14.480;2023-05-16T09:55:30;99165.00;;;21.85
63689;BMP280;54895;40.928;14.480;2023-05-16T09:57:57;99179.19;;;22.26
63689;BMP280;54895;40.928;14.480;2023-05-16T10:00:30;99219.81;;;22.94
63689;BMP280;54895;40.928;14.480;2023-05-16T10:02:59;99252.81;;;23.10
63689;BMP280;54895;40.928;14.480;2023-05-16T10:05:26;99275.50;;;23.46
63689;BMP280;54895;40.928;14.480;2023-05-16T10:07:55;99295.31;;;23.25
63689;BMP280;54895;40.928;14.480;2023-05-16T10:10:22;99299.19;;;22.73
63689;BMP280;54895;40.928;14.480;2023-05-16T10:12:50;99278.19;;;22.31
63689;BMP280;54895;40.928;14.480;2023-05-16T10:15:17;99267.34;;;22.31
63689;BMP280;54895;40.928;14.480;2023-05-16T10:17:49;99273.84;;;22.01
63689;BMP280;54895;40.928;14.480;2023-05-16T10:20:17;99244.69;;;21.80
63689;BMP280;54895;40.928;14.480;2023-05-16T10:22:46;99235.00;;;21.73
63689;BMP280;54895;40.928;14.480;2023-05-16T10:25:31;99212.59;;;20.94
63689;BMP280;54895;40.928;14.480;2023-05-16T10:27:58;99199.19;;;20.79
63689;BMP280;54895;40.928;14.480;2023-05-16T10:30:25;99173.22;;;20.72
63689;BMP280;54895;40.928;14.480;2023-05-16T10:32:52;99201.28;;;20.28
63689;BMP280;54895;40.928;14.480;2023-05-16T10:35:19;99105.09;;;19.86
63689;BMP280;54895;40.928;14.480;2023-05-16T10:37:47;99015.34;;;19.68
63689;BMP280;54895;40.928;14.480;2023-05-16T10:40:15;99014.81;;;19.72
63689;BMP280;54895;40.928;14.480;2023-05-16T10:42:56;99018.88;;;19.90
63689;BMP280;54895;40.928;14.480;2023-05-16T10:45:22;98998.84;;;19.95
63689;BMP280;54895;40.928;14.480;2023-05-16T10:48:00;98963.09;;;19.77
63689;BMP280;54895;40.928;14.480;2023-05-16T10:50:39;98925.59;;;19.85
63689;BMP280;54895;40.928;14.480;2023-05-16T11:14:39;98879.09;;;18.97
63689;BMP280;54895;40.928;14.480;2023-05-16T11:17:12;98862.94;;;19.32
63689;BMP280;54895;40.928;14.480;2023-05-16T11:19:41;98866.16;;;19.46
63689;BMP280;54895;40.928;14.480;2023-05-16T11:27:23;99059.56;;;20.49
63689;BMP280;54895;40.928;14.480;2023-05-16T11:33:08;99099.53;;;20.52
63689;BMP280;54895;40.928;14.480;2023-05-16T11:35:36;99086.16;;;20.56
63689;BMP280;54895;40.928;14.480;2023-05-16T11:38:03;99152.06;;;20.47
63689;BMP280;54895;40.928;14.480;2023-05-16T11:40:29;99108.34;;;20.35
63689;BMP280;54895;40.928;14.480;2023-05-16T11:42:59;99099.69;;;20.56
63689;BMP280;54895;40.928;14.480;2023-05-16T11:45:28;99099.41;;;20.48
63689;BMP280;54895;40.928;14.480;2023-05-16T11:48:01;99148.03;;;20.48
63689;BMP280;54895;40.928;14.480;2023-05-16T11:50:29;99141.59;;;20.57
63689;BMP280;54895;40.928;14.480;2023-05-16T11:53:02;99156.13;;;21.22
63689;BMP280;54895;40.928;14.480;2023-05-16T11:55:29;99199.00;;;21.29
63689;BMP280;54895;40.928;14.480;2023-05-16T11:57:57;99219.84;;;21.27
63689;BMP280;54895;40.928;14.480;2023-05-16T12:00:25;99202.78;;;21.03
63689;BMP280;54895;40.928;14.480;2023-05-16T12:02:54;99129.34;;;19.84
63689;BMP280;54895;40.928;14.480;2023-05-16T12:05:26;99122.13;;;19.73
63689;BMP280;54895;40.928;14.480;2023-05-16T12:07:54;99012.91;;;19.24
63689;BMP280;54895;40.928;14.480;2023-05-16T12:10:20;98982.31;;;19.17
63689;BMP280;54895;40.928;14.480;2023-05-16T12:12:49;98998.28;;;19.13
63689;BMP280;54895;40.928;14.480;2023-05-16T12:15:20;99041.06;;;19.21
63689;BMP280;54895;40.928;14.480;2023-05-16T12:17:47;99093.34;;;19.29
63689;BMP280;54895;40.928;14.480;2023-05-16T12:20:14;99149.00;;;18.92
63689;BMP280;54895;40.928;14.480;2023-05-16T12:22:42;99142.91;;;18.91
63689;BMP280;54895;40.928;14.480;2023-05-16T12:27:54;99175.31;;;18.93
63689;BMP280;54895;40.928;14.480;2023-05-16T12:30:23;99165.44;;;19.13
63689;BMP280;54895;40.928;14.480;2023-05-16T12:33:06;99233.13;;;19.66
63689;BMP280;54895;40.928;14.480;2023-05-16T12:35:36;99323.09;;;19.12
63689;BMP280;54895;40.928;14.480;2023-05-16T12:38:04;99273.78;;;19.10
63689;BMP280;54895;40.928;14.480;2023-05-16T12:40:31;99151.88;;;18.81
63689;BMP280;54895;40.928;14.480;2023-05-16T12:42:58;99182.84;;;19.10
63689;BMP280;54895;40.928;14.480;2023-05-16T12:45:28;99170.75;;;19.11
63689;BMP280;54895;40.928;14.480;2023-05-16T12:47:54;99195.97;;;19.18
63689;BMP280;54895;40.928;14.480;2023-05-16T12:50:21;99211.38;;;19.46
63689;BMP280;54895;40.928;14.480;2023-05-16T12:52:48;99250.00;;;19.66
63689;BMP280;54895;40.928;14.480;2023-05-16T12:55:20;99265.84;;;19.74
63689;BMP280;54895;40.928;14.480;2023-05-16T12:57:48;99291.59;;;19.46
63689;BMP280;54895;40.928;14.480;2023-05-16T13:00:18;99329.88;;;19.42
63689;BMP280;54895;40.928;14.480;2023-05-16T13:02:46;99312.81;;;19.53
63689;BMP280;54895;40.928;14.480;2023-05-16T13:05:14;99344.72;;;19.72
63689;BMP280;54895;40.928;14.480;2023-05-16T13:07:41;99372.72;;;19.65
63689;BMP280;54895;40.928;14.480;2023-05-16T13:10:08;99379.97;;;19.76
63689;BMP280;54895;40.928;14.480;2023-05-16T13:12:36;99346.34;;;19.79
63689;BMP280;54895;40.928;14.480;2023-05-16T13:15:08;99361.09;;;20.07
63689;BMP280;54895;40.928;14.480;2023-05-16T13:17:36;99370.63;;;20.10
63689;BMP280;54895;40.928;14.480;2023-05-16T13:20:05;99393.66;;;20.11
63689;BMP280;54895;40.928;14.480;2023-05-16T13:22:35;99391.16;;;20.48
63689;BMP280;54895;40.928;14.480;2023-05-16T13:25:03;99396.97;;;19.94
63689;BMP280;54895;40.928;14.480;2023-05-16T13:27:31;99357.22;;;19.50
63689;BMP280;54895;40.928;14.480;2023-05-16T13:29:58;99252.94;;;18.68
63689;BMP280;54895;40.928;14.480;2023-05-16T13:32:25;99144.34;;;18.64
63689;BMP280;54895;40.928;14.480;2023-05-16T13:34:52;99082.94;;;18.47
63689;BMP280;54895;40.928;14.480;2023-05-16T13:37:19;99090.47;;;18.64
63689;BMP280;54895;40.928;14.480;2023-05-16T13:39:46;99156.13;;;18.85
63689;BMP280;54895;40.928;14.480;2023-05-16T13:42:13;99157.56;;;18.73
63689;BMP280;54895;40.928;14.480;2023-05-16T13:44:40;99133.22;;;18.86
63689;BMP280;54895;40.928;14.480;2023-05-16T13:47:07;99193.97;;;19.18
63689;BMP280;54895;40.928;14.480;2023-05-16T13:49:34;99181.25;;;19.36
63689;BMP280;54895;40.928;14.480;2023-05-16T13:52:00;99213.44;;;19.48
63689;BMP280;54895;40.928;14.480;2023-05-16T13:54:27;99221.94;;;19.73
63689;BMP280;54895;40.928;14.480;2023-05-16T13:56:54;99241.94;;;19.99
63689;BMP280;54895;40.928;14.480;2023-05-16T13:59:20;99299.69;;;20.41
63689;BMP280;54895;40.928;14.480;2023-05-16T14:01:48;99348.13;;;19.88
63689;BMP280;54895;40.928;14.480;2023-05-16T14:04:15;99358.97;;;19.75
63689;BMP280;54895;40.928;14.480;2023-05-16T14:06:42;99375.69;;;19.87
63689;BMP280;54895;40.928;14.480;2023-05-16T14:09:08;99380.38;;;19.86
63689;BMP280;54895;40.928;14.480;2023-05-16T14:11:36;99387.97;;;19.90
63689;BMP280;54895;40.928;14.480;2023-05-16T14:14:02;99428.03;;;19.95
63689;BMP280;54895;40.928;14.480;2023-05-16T14:16:30;99416.09;;;20.00
63689;BMP280;54895;40.928;14.480;2023-05-16T14:18:56;99434.38;;;20.02
63689;BMP280;54895;40.928;14.480;2023-05-16T14:21:23;99433.63;;;19.99
63689;BMP280;54895;40.928;14.480;2023-05-16T14:23:49;99425.50;;;19.99
63689;BMP280;54895;40.928;14.480;2023-05-16T14:26:16;99414.03;;;20.14
63689;BMP280;54895;40.928;14.480;2023-05-16T14:28:48;99416.31;;;20.04
63689;BMP280;54895;40.928;14.480;2023-05-16T14:31:15;99421.72;;;20.04
63689;BMP280;54895;40.928;14.480;2023-05-16T14:33:41;99438.06;;;20.08
63689;BMP280;54895;40.928;14.480;2023-05-16T14:36:09;99425.72;;;20.34
63689;BMP280;54895;40.928;14.480;2023-05-16T14:38:35;99440.00;;;20.06
63689;BMP280;54895;40.928;14.480;2023-05-16T14:41:02;99423.94;;;19.94
63689;BMP280;54895;40.928;14.480;2023-05-16T14:43:28;99434.13;;;19.80
63689;BMP280;54895;40.928;14.480;2023-05-16T14:45:56;99412.44;;;19.78
63689;BMP280;54895;40.928;14.480;2023-05-16T14:48:23;99410.34;;;19.77
63689;BMP280;54895;40.928;14.480;2023-05-16T14:50:49;99380.75;;;19.34
63689;BMP280;54895;40.928;14.480;2023-05-16T14:53:17;99334.00;;;19.14
63689;BMP280;54895;40.928;14.480;2023-05-16T14:55:43;99353.63;;;19.17
63689;BMP280;54895;40.928;14.480;2023-05-16T14:58:10;99363.03;;;18.74
63689;BMP280;54895;40.928;14.480;2023-05-16T15:00:36;99354.03;;;18.56
63689;BMP280;54895;40.928;14.480;2023-05-16T15:03:03;99359.22;;;18.52
63689;BMP280;54895;40.928;14.480;2023-05-16T15:05:30;99356.53;;;18.52
63689;BMP280;54895;40.928;14.480;2023-05-16T15:07:56;99274.66;;;18.30
63689;BMP280;54895;40.928;14.480;2023-05-16T15:10:23;99227.59;;;18.44
63689;BMP280;54895;40.928;14.480;2023-05-16T15:12:50;99198.84;;;18.49
63689;BMP280;54895;40.928;14.480;2023-05-16T15:15:16;99211.66;;;18.35
63689;BMP280;54895;40.928;14.480;2023-05-16T15:17:43;99153.59;;;18.32